Time;durP1;ratioP1;P1;durP2;ratioP2;P2;SDS_P1;SDS_P2;PMS_P1;PMS_P2;Temp;Humidity;BMP_temperature;BMP_pressure;BME280_temperature;BME280_humidity;BME280_pressure;Samples;Min_cycle;Max_cycle;Signal;HPM_P1;HPM_P2
2022/01/24 00:00:27;;;;;;;18.70;13.50;;;;;;;;;;4991364;28;20486;-81
2022/01/24 00:02:53;;;;;;;16.90;12.77;;;;;;;;;;4989914;28;20548;-81
2022/01/24 00:05:20;;;;;;;23.60;12.40;;;;;;;;;;4992785;28;20956;-82
2022/01/24 00:07:47;;;;;;;21.60;13.77;;;;;;;;;;4990304;28;20505;-82
2022/01/24 00:10:18;;;;;;;21.50;13.50;;;;;;;;;;4989543;28;20459;-83
2022/01/24 00:12:54;;;;;;;25.70;14.30;;;;;;;;;;4991404;28;21007;-81
2022/01/24 00:15:34;;;;;;;21.93;13.30;;;;;;;;;;4991385;28;20478;-82
2022/01/24 00:18:07;;;;;;;24.17;13.60;;;;;;;;;;4990957;28;20494;-81
2022/01/24 00:29:00;;;;;;;24.43;14.13;;;;;;;;;;4992239;28;20525;-82
2022/01/24 00:31:26;;;;;;;24.37;15.00;;;;;;;;;;4991835;28;20471;-81
2022/01/24 00:33:52;;;;;;;23.03;15.20;;;;;;;;;;4990702;28;20468;-81
2022/01/24 00:36:20;;;;;;;21.03;14.40;;;;;;;;;;4991633;28;20487;-81
2022/01/24 00:38:46;;;;;;;24.97;15.53;;;;;;;;;;4991790;28;21012;-81
2022/01/24 00:41:16;;;;;;;21.60;14.83;;;;;;;;;;4992242;28;20877;-81
2022/01/24 00:43:56;;;;;;;24.30;16.23;;;;;;;;;;4992357;28;20474;-80
2022/01/24 00:46:32;;;;;;;22.47;13.63;;;;;;;;;;4992359;28;21034;-82
2022/01/24 00:49:18;;;;;;;22.03;14.10;;;;;;;;;;4992557;28;20565;-80
2022/01/24 00:54:47;;;;;;;22.13;14.00;;;;;;;;;;4992097;28;20462;-82
2022/01/24 00:57:14;;;;;;;20.83;13.40;;;;;;;;;;4991812;28;20506;-81
2022/01/24 00:59:41;;;;;;;17.90;12.93;;;;;;;;;;4992687;28;20482;-82
2022/01/24 01:02:07;;;;;;;20.80;13.77;;;;;;;;;;4991018;28;20476;-81
2022/01/24 01:04:42;;;;;;;23.83;14.23;;;;;;;;;;4992316;28;20451;-81
2022/01/24 01:07:10;;;;;;;22.40;13.80;;;;;;;;;;4990034;28;20905;-81
2022/01/24 01:18:15;;;;;;;20.27;13.80;;;;;;;;;;4992575;28;20493;-81
2022/01/24 01:20:57;;;;;;;23.27;14.20;;;;;;;;;;4992043;28;20558;-81
2022/01/24 01:23:25;;;;;;;25.30;13.07;;;;;;;;;;4992433;28;20578;-81
2022/01/24 01:25:53;;;;;;;21.10;13.33;;;;;;;;;;4991633;28;20483;-81
2022/01/24 01:28:20;;;;;;;22.77;14.73;;;;;;;;;;4991407;28;20494;-81
2022/01/24 01:30:50;;;;;;;22.13;14.83;;;;;;;;;;4993811;28;20471;-82
2022/01/24 01:33:24;;;;;;;25.67;15.20;;;;;;;;;;4994714;28;20454;-81
2022/01/24 01:36:03;;;;;;;21.53;14.60;;;;;;;;;;4993007;28;20450;-80
2022/01/24 01:52:51;;;;;;;20.77;12.87;;;;;;;;;;4994415;28;20535;-81
2022/01/24 01:55:36;;;;;;;25.63;14.10;;;;;;;;;;4993827;28;20454;-82
2022/01/24 01:58:03;;;;;;;22.23;13.50;;;;;;;;;;4992508;28;20573;-81
2022/01/24 02:00:29;;;;;;;19.87;13.87;;;;;;;;;;4992426;28;20479;-81
2022/01/24 02:02:55;;;;;;;22.30;13.93;;;;;;;;;;4994212;28;20510;-82
2022/01/24 02:05:22;;;;;;;24.03;15.00;;;;;;;;;;4996749;28;20808;-81
2022/01/24 02:07:49;;;;;;;25.30;14.90;;;;;;;;;;4994754;28;21012;-81
2022/01/24 02:10:16;;;;;;;23.93;14.40;;;;;;;;;;4991914;28;20628;-81
2022/01/24 02:12:44;;;;;;;22.57;14.20;;;;;;;;;;4992414;28;20476;-81
2022/01/24 02:15:12;;;;;;;22.17;14.90;;;;;;;;;;4992810;28;20454;-81
2022/01/24 02:17:49;;;;;;;19.73;13.13;;;;;;;;;;4989661;28;21297;-81
2022/01/24 02:20:37;;;;;;;25.87;15.73;;;;;;;;;;4991477;28;20482;-82
2022/01/24 02:23:19;;;;;;;21.33;13.10;;;;;;;;;;4986946;28;20918;-81
2022/01/24 02:25:47;;;;;;;22.47;14.20;;;;;;;;;;4992035;28;20446;-81
2022/01/24 02:28:16;;;;;;;23.33;14.30;;;;;;;;;;4990083;28;20483;-82
2022/01/24 02:30:56;;;;;;;23.17;13.43;;;;;;;;;;4992293;28;20459;-79
2022/01/24 02:33:23;;;;;;;19.80;13.73;;;;;;;;;;4992257;28;20490;-81
2022/01/24 02:35:50;;;;;;;22.63;13.70;;;;;;;;;;4990107;28;20454;-81
2022/01/24 02:38:28;;;;;;;20.47;13.77;;;;;;;;;;4992559;28;20566;-81
2022/01/24 02:49:07;;;;;;;26.70;14.50;;;;;;;;;;4991614;28;20503;-81
2022/01/24 02:51:46;;;;;;;22.83;14.20;;;;;;;;;;4990957;28;20483;-81
2022/01/24 02:54:23;;;;;;;28.43;15.37;;;;;;;;;;4993183;28;20497;-81
2022/01/24 02:56:50;;;;;;;28.20;16.37;;;;;;;;;;4991986;28;20480;-81
2022/01/24 02:59:16;;;;;;;22.77;13.73;;;;;;;;;;4988353;28;20918;-81
2022/01/24 03:01:43;;;;;;;24.67;13.40;;;;;;;;;;4989472;28;20867;-80
2022/01/24 03:04:09;;;;;;;24.53;14.20;;;;;;;;;;4989676;28;20537;-81
2022/01/24 03:06:35;;;;;;;27.23;15.07;;;;;;;;;;4991074;28;20506;-81
2022/01/24 03:09:02;;;;;;;22.93;14.60;;;;;;;;;;4992909;28;20877;-82
2022/01/24 03:11:51;;;;;;;29.10;15.97;;;;;;;;;;4991504;28;21035;-81
2022/01/24 03:14:16;;;;;;;26.90;15.10;;;;;;;;;;4992300;28;20443;-81
2022/01/24 03:16:43;;;;;;;27.20;14.60;;;;;;;;;;4989414;28;20490;-80
2022/01/24 03:19:09;;;;;;;28.40;14.90;;;;;;;;;;4992210;28;20890;-81
2022/01/24 03:21:35;;;;;;;23.00;15.40;;;;;;;;;;4990543;28;21005;-81
2022/01/24 03:24:01;;;;;;;32.23;17.70;;;;;;;;;;4989892;28;20455;-81
2022/01/24 03:26:28;;;;;;;31.63;17.23;;;;;;;;;;4989589;28;20483;-81
2022/01/24 03:28:55;;;;;;;27.43;17.50;;;;;;;;;;4991821;28;20594;-81
2022/01/24 03:31:22;;;;;;;27.30;17.30;;;;;;;;;;4990764;28;20517;-81
2022/01/24 03:33:48;;;;;;;32.63;17.63;;;;;;;;;;4988804;28;20471;-81
2022/01/24 03:36:14;;;;;;;29.60;17.87;;;;;;;;;;4990830;28;20911;-81
2022/01/24 03:38:40;;;;;;;33.60;17.97;;;;;;;;;;4990501;28;20996;-80
2022/01/24 03:41:07;;;;;;;29.00;16.67;;;;;;;;;;4991666;28;20479;-82
2022/01/24 03:43:33;;;;;;;33.60;17.70;;;;;;;;;;4990176;28;20474;-82
2022/01/24 03:46:13;;;;;;;33.43;19.10;;;;;;;;;;4990506;28;20841;-82
2022/01/24 03:48:42;;;;;;;36.07;18.77;;;;;;;;;;4991231;28;20478;-80
2022/01/24 03:51:09;;;;;;;29.43;17.57;;;;;;;;;;4987910;28;20475;-82
2022/01/24 03:53:35;;;;;;;35.90;21.70;;;;;;;;;;4989779;28;20458;-81
2022/01/24 03:56:02;;;;;;;33.80;18.97;;;;;;;;;;4991195;28;20456;-81
2022/01/24 03:58:28;;;;;;;40.03;18.23;;;;;;;;;;4988551;28;20501;-82
2022/01/24 04:00:55;;;;;;;35.33;19.07;;;;;;;;;;4990676;28;20996;-82
2022/01/24 04:03:22;;;;;;;32.73;17.70;;;;;;;;;;4991444;28;21019;-81
2022/01/24 04:05:49;;;;;;;31.00;19.57;;;;;;;;;;4988056;28;20459;-82
2022/01/24 04:08:15;;;;;;;33.83;19.00;;;;;;;;;;4989170;28;20472;-81
2022/01/24 04:10:44;;;;;;;33.03;18.23;;;;;;;;;;4990605;28;20469;-81
2022/01/24 04:13:24;;;;;;;30.80;18.70;;;;;;;;;;4990962;28;20466;-81
2022/01/24 04:16:10;;;;;;;36.37;19.33;;;;;;;;;;4990765;28;20509;-81
2022/01/24 04:18:45;;;;;;;34.60;20.20;;;;;;;;;;4991141;28;20916;-82
2022/01/24 04:21:24;;;;;;;31.13;19.20;;;;;;;;;;4990589;28;20553;-81
2022/01/24 04:23:56;;;;;;;30.90;18.50;;;;;;;;;;4990618;28;20455;-81
2022/01/24 04:26:22;;;;;;;34.13;18.50;;;;;;;;;;4991902;28;20474;-81
2022/01/24 04:28:48;;;;;;;33.80;19.23;;;;;;;;;;4990771;28;20821;-81
2022/01/24 04:31:15;;;;;;;32.23;18.63;;;;;;;;;;4989996;28;20470;-81
2022/01/24 04:33:43;;;;;;;33.93;19.40;;;;;;;;;;4992403;28;20493;-79
2022/01/24 04:36:09;;;;;;;32.50;19.93;;;;;;;;;;4990652;28;20462;-81
2022/01/24 04:38:35;;;;;;;35.27;20.03;;;;;;;;;;4991226;28;20483;-81
2022/01/24 04:41:06;;;;;;;38.33;19.40;;;;;;;;;;4989776;28;20455;-80
2022/01/24 04:43:48;;;;;;;35.90;19.80;;;;;;;;;;4990788;28;20463;-81
2022/01/24 04:46:28;;;;;;;36.70;18.27;;;;;;;;;;4990186;28;20831;-80
2022/01/24 04:51:54;;;;;;;39.57;19.50;;;;;;;;;;4990265;28;21027;-81
2022/01/24 04:56:54;;;;;;;34.40;19.73;;;;;;;;;;4989402;28;20500;-81
2022/01/24 04:59:20;;;;;;;35.03;17.73;;;;;;;;;;4992238;28;20538;-81
2022/01/24 05:01:47;;;;;;;35.00;18.60;;;;;;;;;;4990331;28;20580;-82
2022/01/24 05:04:14;;;;;;;34.10;19.43;;;;;;;;;;4990296;28;20995;-81
2022/01/24 05:06:40;;;;;;;36.43;19.07;;;;;;;;;;4989084;28;20498;-80
2022/01/24 05:09:07;;;;;;;35.80;20.70;;;;;;;;;;4992859;28;20475;-81
2022/01/24 05:11:40;;;;;;;28.00;16.77;;;;;;;;;;4991120;28;20566;-80
2022/01/24 05:25:30;;;;;;;28.87;18.17;;;;;;;;;;4985508;28;20438;-81
2022/01/24 05:27:56;;;;;;;27.57;16.67;;;;;;;;;;4992381;28;20540;-81
2022/01/24 05:30:22;;;;;;;31.80;18.13;;;;;;;;;;4990697;28;20463;-81
2022/01/24 05:32:48;;;;;;;26.90;16.30;;;;;;;;;;4988800;28;20474;-80
2022/01/24 05:35:16;;;;;;;31.57;17.83;;;;;;;;;;4986123;28;20495;-81
2022/01/24 05:37:42;;;;;;;30.07;17.97;;;;;;;;;;4991105;28;20538;-78
2022/01/24 05:40:09;;;;;;;34.60;18.30;;;;;;;;;;4991304;28;20897;-81
2022/01/24 05:42:36;;;;;;;29.90;19.00;;;;;;;;;;4994832;28;20482;-82
2022/01/24 05:45:03;;;;;;;29.10;18.80;;;;;;;;;;4995400;28;20494;-82
2022/01/24 05:47:29;;;;;;;28.17;17.20;;;;;;;;;;4995473;28;20479;-81
2022/01/24 05:49:56;;;;;;;28.73;17.00;;;;;;;;;;4995045;28;20450;-82
2022/01/24 05:52:23;;;;;;;29.90;17.10;;;;;;;;;;4994832;28;20521;-81
2022/01/24 05:54:50;;;;;;;37.57;19.47;;;;;;;;;;4995186;28;20478;-81
2022/01/24 05:57:16;;;;;;;28.03;18.43;;;;;;;;;;4992244;28;20474;-80
2022/01/24 05:59:42;;;;;;;28.13;16.30;;;;;;;;;;4996924;28;20459;-79
2022/01/24 06:02:08;;;;;;;27.90;17.43;;;;;;;;;;4995685;28;20495;-81
2022/01/24 06:04:37;;;;;;;34.03;17.87;;;;;;;;;;4997078;28;20446;-80
2022/01/24 06:07:04;;;;;;;30.77;17.43;;;;;;;;;;4994716;28;20479;-80
2022/01/24 06:09:31;;;;;;;29.27;16.40;;;;;;;;;;4993313;28;20466;-80
2022/01/24 06:11:58;;;;;;;36.07;20.17;;;;;;;;;;4994495;28;20486;-81
2022/01/24 06:14:24;;;;;;;29.10;18.03;;;;;;;;;;4997638;28;20469;-80
2022/01/24 06:16:50;;;;;;;26.17;16.33;;;;;;;;;;4995370;28;20470;-81
2022/01/24 06:19:17;;;;;;;28.63;16.50;;;;;;;;;;4994598;28;20897;-80
2022/01/24 06:21:44;;;;;;;24.10;15.70;;;;;;;;;;4992543;28;20486;-78
2022/01/24 06:24:11;;;;;;;29.00;17.27;;;;;;;;;;4991331;28;20455;-80
2022/01/24 06:26:38;;;;;;;28.53;18.33;;;;;;;;;;4991109;28;20482;-80
2022/01/24 06:29:04;;;;;;;28.40;17.20;;;;;;;;;;4993133;28;20497;-81
2022/01/24 06:31:31;;;;;;;28.13;16.37;;;;;;;;;;4992488;28;20497;-80
2022/01/24 06:33:57;;;;;;;30.33;18.10;;;;;;;;;;4992374;28;20519;-80
2022/01/24 06:36:24;;;;;;;27.50;16.13;;;;;;;;;;4991736;28;20470;-80
2022/01/24 06:38:51;;;;;;;29.80;17.33;;;;;;;;;;4991231;28;20490;-80
2022/01/24 06:41:22;;;;;;;35.77;17.67;;;;;;;;;;4987690;28;20524;-80
2022/01/24 06:43:50;;;;;;;32.93;18.50;;;;;;;;;;4992708;28;20452;-80
2022/01/24 06:46:16;;;;;;;29.80;19.00;;;;;;;;;;4989960;28;20483;-80
2022/01/24 06:48:42;;;;;;;34.93;18.63;;;;;;;;;;4990657;28;20480;-78
2022/01/24 06:51:10;;;;;;;32.00;18.60;;;;;;;;;;4989337;28;20466;-80
2022/01/24 06:53:37;;;;;;;30.57;18.20;;;;;;;;;;4993700;28;20471;-80
2022/01/24 06:56:03;;;;;;;36.30;18.40;;;;;;;;;;4991179;28;20479;-81
2022/01/24 06:58:29;;;;;;;28.77;16.03;;;;;;;;;;4990742;28;20471;-81
2022/01/24 07:00:57;;;;;;;36.03;18.17;;;;;;;;;;4989433;28;20508;-81
2022/01/24 07:03:23;;;;;;;28.13;17.87;;;;;;;;;;4987618;28;20479;-81
2022/01/24 07:05:49;;;;;;;31.70;18.67;;;;;;;;;;4988867;28;20470;-80
2022/01/24 07:08:16;;;;;;;38.50;20.47;;;;;;;;;;4990888;28;20887;-80
2022/01/24 07:10:42;;;;;;;34.37;20.23;;;;;;;;;;4992616;28;20459;-79
2022/01/24 07:13:08;;;;;;;30.80;20.13;;;;;;;;;;4987378;28;20472;-80
2022/01/24 07:15:40;;;;;;;31.87;19.70;;;;;;;;;;4991092;28;20442;-81
2022/01/24 07:18:58;;;;;;;37.83;19.00;;;;;;;;;;4990117;28;20475;-80
2022/01/24 07:21:07;;;;;;;32.70;18.80;;;;;;;;;;4988782;28;20471;-81
2022/01/24 07:23:34;;;;;;;36.80;19.77;;;;;;;;;;4989985;28;20582;-81
2022/01/24 07:26:01;;;;;;;31.73;18.13;;;;;;;;;;4989521;28;20465;-81
2022/01/24 07:28:27;;;;;;;34.37;20.40;;;;;;;;;;4990284;28;20483;-80
2022/01/24 07:30:53;;;;;;;34.30;18.67;;;;;;;;;;4991353;28;20447;-81
2022/01/24 07:33:21;;;;;;;39.33;20.20;;;;;;;;;;4983049;28;20465;-81
2022/01/24 07:35:47;;;;;;;36.03;18.63;;;;;;;;;;4987114;28;20450;-81
2022/01/24 07:38:13;;;;;;;32.60;19.80;;;;;;;;;;4987141;28;20545;-81
2022/01/24 07:40:42;;;;;;;33.43;18.70;;;;;;;;;;4986278;28;20552;-82
2022/01/24 07:43:12;;;;;;;31.80;18.73;;;;;;;;;;4986010;28;20480;-81
2022/01/24 07:45:40;;;;;;;33.37;21.10;;;;;;;;;;4987987;28;20470;-81
2022/01/24 07:48:06;;;;;;;30.70;18.57;;;;;;;;;;4987010;28;20494;-81
2022/01/24 07:50:36;;;;;;;33.87;20.60;;;;;;;;;;4985583;28;20555;-82
2022/01/24 07:53:03;;;;;;;33.77;19.20;;;;;;;;;;4987108;28;20479;-80
2022/01/24 07:55:30;;;;;;;35.50;21.23;;;;;;;;;;4987665;28;20518;-81
2022/01/24 07:57:56;;;;;;;34.80;20.50;;;;;;;;;;4985600;28;20557;-81
2022/01/24 08:00:23;;;;;;;31.23;17.23;;;;;;;;;;4985873;28;20454;-80
2022/01/24 08:02:49;;;;;;;28.43;17.43;;;;;;;;;;4985946;28;20487;-80
2022/01/24 08:05:15;;;;;;;35.17;19.47;;;;;;;;;;4986483;28;20497;-82
2022/01/24 08:07:43;;;;;;;37.80;20.80;;;;;;;;;;4985098;28;20507;-81
2022/01/24 08:10:10;;;;;;;32.20;19.20;;;;;;;;;;4985096;28;20479;-82
2022/01/24 08:12:38;;;;;;;36.17;20.17;;;;;;;;;;4984881;28;20507;-82
2022/01/24 08:15:04;;;;;;;36.07;21.37;;;;;;;;;;4985307;28;20526;-80
2022/01/24 08:17:31;;;;;;;31.40;19.00;;;;;;;;;;4985939;28;20525;-81
2022/01/24 08:19:57;;;;;;;38.20;23.40;;;;;;;;;;4987167;28;20877;-81
2022/01/24 08:22:24;;;;;;;33.30;20.07;;;;;;;;;;4986418;28;20569;-82
2022/01/24 08:24:51;;;;;;;40.13;24.33;;;;;;;;;;4985062;28;20467;-79
2022/01/24 08:27:18;;;;;;;37.60;20.50;;;;;;;;;;4985466;28;20565;-80
2022/01/24 08:29:45;;;;;;;34.37;19.80;;;;;;;;;;4986176;28;20462;-80
2022/01/24 08:32:11;;;;;;;38.63;21.20;;;;;;;;;;4983917;28;20470;-80
2022/01/24 08:34:38;;;;;;;36.97;21.60;;;;;;;;;;4986225;28;20510;-80
2022/01/24 08:37:04;;;;;;;35.57;21.83;;;;;;;;;;4987230;28;20478;-81
2022/01/24 08:39:31;;;;;;;40.00;21.83;;;;;;;;;;4985790;28;20986;-79
2022/01/24 08:42:09;;;;;;;33.67;21.10;;;;;;;;;;4986266;28;20477;-80
2022/01/24 08:47:15;;;;;;;35.13;20.03;;;;;;;;;;4981762;28;20476;-82
2022/01/24 08:49:41;;;;;;;36.07;19.40;;;;;;;;;;4985038;28;20462;-81
2022/01/24 08:52:08;;;;;;;33.50;20.23;;;;;;;;;;4987405;28;20491;-82
2022/01/24 08:54:34;;;;;;;33.93;20.33;;;;;;;;;;4984966;28;20455;-81
2022/01/24 08:57:02;;;;;;;38.53;21.10;;;;;;;;;;4984871;28;20575;-80
2022/01/24 08:59:28;;;;;;;36.80;20.60;;;;;;;;;;4985700;28;20478;-80
2022/01/24 09:01:54;;;;;;;32.77;21.23;;;;;;;;;;4985961;28;21078;-80
2022/01/24 09:04:20;;;;;;;31.80;17.50;;;;;;;;;;4987726;28;20999;-81
2022/01/24 09:06:47;;;;;;;31.93;18.83;;;;;;;;;;4985560;28;20509;-81
2022/01/24 09:09:15;;;;;;;30.80;19.40;;;;;;;;;;4989426;28;20537;-80
2022/01/24 09:11:41;;;;;;;34.13;19.30;;;;;;;;;;4985699;28;20510;-78
2022/01/24 09:14:09;;;;;;;33.97;19.97;;;;;;;;;;4989117;28;20439;-81
2022/01/24 09:16:35;;;;;;;34.53;21.00;;;;;;;;;;4990453;28;20521;-81
2022/01/24 09:19:02;;;;;;;33.90;21.07;;;;;;;;;;4990225;28;20466;-81
2022/01/24 09:21:29;;;;;;;30.13;17.93;;;;;;;;;;4988446;28;20466;-81
2022/01/24 09:23:55;;;;;;;27.80;16.63;;;;;;;;;;4989980;28;20538;-81
2022/01/24 09:26:22;;;;;;;26.87;17.20;;;;;;;;;;4990806;28;21003;-81
2022/01/24 09:28:48;;;;;;;26.37;16.57;;;;;;;;;;4989136;28;21087;-81
2022/01/24 09:31:16;;;;;;;26.63;17.03;;;;;;;;;;4985819;28;21020;-80
2022/01/24 09:33:42;;;;;;;29.23;18.20;;;;;;;;;;4990088;28;20454;-79
2022/01/24 09:36:09;;;;;;;35.50;21.23;;;;;;;;;;4988315;28;20471;-81
2022/01/24 09:38:36;;;;;;;53.83;28.43;;;;;;;;;;4990533;28;20487;-80
2022/01/24 09:41:04;;;;;;;58.43;31.37;;;;;;;;;;4987274;28;20474;-80
2022/01/24 09:43:30;;;;;;;57.93;31.00;;;;;;;;;;4990746;28;20482;-81
2022/01/24 09:45:58;;;;;;;57.10;31.57;;;;;;;;;;4990073;28;20825;-80
2022/01/24 09:48:25;;;;;;;66.70;32.60;;;;;;;;;;4988201;28;20477;-81
2022/01/24 09:50:53;;;;;;;69.00;34.00;;;;;;;;;;4988962;28;20597;-80
2022/01/24 09:53:19;;;;;;;64.10;34.90;;;;;;;;;;4990917;28;20478;-80
2022/01/24 09:55:46;;;;;;;63.73;33.07;;;;;;;;;;4989097;28;20454;-80
2022/01/24 09:58:12;;;;;;;62.83;32.70;;;;;;;;;;4988396;28;20470;-80
2022/01/24 10:00:39;;;;;;;64.70;34.40;;;;;;;;;;4991195;28;20467;-81
2022/01/24 10:03:07;;;;;;;64.40;34.00;;;;;;;;;;4989669;28;20471;-80
2022/01/24 10:05:37;;;;;;;58.73;33.40;;;;;;;;;;4989647;28;20489;-81
2022/01/24 10:08:05;;;;;;;63.83;33.80;;;;;;;;;;4989025;28;20477;-77
2022/01/24 10:10:33;;;;;;;64.00;33.60;;;;;;;;;;4988914;28;20465;-81
2022/01/24 10:16:25;;;;;;;62.80;33.00;;;;;;;;;;4989077;28;20848;-80
2022/01/24 10:18:58;;;;;;;66.10;33.67;;;;;;;;;;4990944;28;20996;-81
2022/01/24 10:21:25;;;;;;;61.20;32.10;;;;;;;;;;4989341;28;20543;-79
2022/01/24 10:23:51;;;;;;;58.83;32.03;;;;;;;;;;4989496;28;20906;-82
2022/01/24 10:26:18;;;;;;;57.63;31.27;;;;;;;;;;4988630;28;20471;-80
2022/01/24 10:28:46;;;;;;;52.30;30.40;;;;;;;;;;4988896;28;20479;-80
2022/01/24 10:31:13;;;;;;;66.80;35.07;;;;;;;;;;4987861;28;20475;-81
2022/01/24 10:33:53;;;;;;;68.57;35.23;;;;;;;;;;4989379;28;20486;-80
2022/01/24 10:36:43;;;;;;;62.17;34.10;;;;;;;;;;4989593;28;20478;-79
2022/01/24 10:39:15;;;;;;;60.67;30.60;;;;;;;;;;4972861;28;20482;-80
2022/01/24 10:41:55;;;;;;;63.27;31.20;;;;;;;;;;4988847;28;20490;-81
2022/01/24 10:44:29;;;;;;;60.67;33.00;;;;;;;;;;4990499;28;20512;-81
2022/01/24 10:47:10;;;;;;;56.03;30.10;;;;;;;;;;4983856;28;20509;-80
2022/01/24 10:49:36;;;;;;;59.07;31.90;;;;;;;;;;4988135;28;20450;-82
2022/01/24 10:52:09;;;;;;;59.43;33.23;;;;;;;;;;4988337;28;20475;-81
2022/01/24 10:54:37;;;;;;;68.53;33.33;;;;;;;;;;4987490;28;20547;-81
2022/01/24 10:57:03;;;;;;;61.13;32.10;;;;;;;;;;4985182;28;20471;-80
2022/01/24 10:59:29;;;;;;;60.27;31.20;;;;;;;;;;4987574;28;20530;-80
2022/01/24 11:01:57;;;;;;;60.63;30.43;;;;;;;;;;4986936;28;20530;-80
2022/01/24 11:04:26;;;;;;;54.40;30.33;;;;;;;;;;4987802;28;20486;-80
2022/01/24 11:06:54;;;;;;;55.70;30.60;;;;;;;;;;4985500;28;20911;-80
2022/01/24 11:09:22;;;;;;;51.20;28.33;;;;;;;;;;4989265;28;20475;-81
2022/01/24 11:11:50;;;;;;;53.43;30.20;;;;;;;;;;4987460;28;20506;-80
2022/01/24 11:14:19;;;;;;;60.30;30.17;;;;;;;;;;4988790;28;20447;-81
2022/01/24 11:16:45;;;;;;;60.37;30.30;;;;;;;;;;4986477;28;20471;-83
2022/01/24 11:19:17;;;;;;;57.80;31.03;;;;;;;;;;4984490;28;21019;-83
2022/01/24 11:21:45;;;;;;;55.70;29.50;;;;;;;;;;4987380;28;20545;-79
2022/01/24 11:24:16;;;;;;;56.90;32.00;;;;;;;;;;4988311;28;20490;-81
2022/01/24 11:26:43;;;;;;;55.83;29.10;;;;;;;;;;4987832;28;20474;-79
2022/01/24 11:29:11;;;;;;;53.53;30.63;;;;;;;;;;4988801;28;20478;-81
2022/01/24 11:31:41;;;;;;;57.50;32.90;;;;;;;;;;4985882;28;20834;-80
2022/01/24 11:34:10;;;;;;;54.83;31.93;;;;;;;;;;4986527;28;20961;-80
2022/01/24 11:36:37;;;;;;;51.10;31.53;;;;;;;;;;4985691;28;20487;-81
2022/01/24 11:39:04;;;;;;;57.73;30.80;;;;;;;;;;4984793;28;20530;-81
2022/01/24 11:41:33;;;;;;;55.93;30.03;;;;;;;;;;4986795;28;20487;-81
2022/01/24 11:44:07;;;;;;;59.00;31.63;;;;;;;;;;4986318;28;20545;-79
2022/01/24 11:46:41;;;;;;;60.40;31.00;;;;;;;;;;4987151;28;21046;-80
2022/01/24 11:49:08;;;;;;;58.60;30.37;;;;;;;;;;4987206;28;20466;-80
2022/01/24 11:51:37;;;;;;;57.50;31.20;;;;;;;;;;4982300;28;20531;-79
2022/01/24 11:54:05;;;;;;;52.90;31.10;;;;;;;;;;4986301;28;20460;-80
2022/01/24 11:56:35;;;;;;;57.63;30.67;;;;;;;;;;4983213;28;20487;-80
2022/01/24 11:59:28;;;;;;;58.10;32.17;;;;;;;;;;4985333;28;20900;-79
2022/01/24 12:02:08;;;;;;;58.63;31.50;;;;;;;;;;4950567;28;20483;-80
2022/01/24 12:04:50;;;;;;;64.93;35.20;;;;;;;;;;4985713;28;20490;-80
2022/01/24 12:07:17;;;;;;;58.20;30.93;;;;;;;;;;4983701;28;20529;-79
2022/01/24 12:09:43;;;;;;;56.83;31.27;;;;;;;;;;4983714;28;20510;-80
2022/01/24 12:12:34;;;;;;;55.23;30.70;;;;;;;;;;4984715;28;20483;-80
2022/01/24 12:15:00;;;;;;;55.37;30.53;;;;;;;;;;4985643;28;20439;-78
2022/01/24 12:17:41;;;;;;;58.80;31.37;;;;;;;;;;4985672;28;20538;-80
2022/01/24 12:20:23;;;;;;;59.47;30.60;;;;;;;;;;4984437;28;20478;-80
2022/01/24 12:22:50;;;;;;;59.10;32.10;;;;;;;;;;4983331;28;20467;-80
2022/01/24 12:25:16;;;;;;;55.20;29.70;;;;;;;;;;4983015;28;20544;-81
2022/01/24 12:27:58;;;;;;;56.97;31.07;;;;;;;;;;4986207;28;20482;-78
2022/01/24 12:30:39;;;;;;;58.40;33.47;;;;;;;;;;4985367;28;20966;-80
2022/01/24 12:33:05;;;;;;;53.70;30.37;;;;;;;;;;4985408;28;20479;-80
2022/01/24 12:35:31;;;;;;;54.27;31.87;;;;;;;;;;4986871;28;20498;-80
2022/01/24 12:38:13;;;;;;;54.40;32.30;;;;;;;;;;4983247;28;20544;-78
2022/01/24 12:40:40;;;;;;;54.97;32.03;;;;;;;;;;4983706;28;20447;-80
2022/01/24 12:43:18;;;;;;;59.07;32.43;;;;;;;;;;4982893;28;20482;-78
2022/01/24 12:48:29;;;;;;;55.93;31.80;;;;;;;;;;4983436;28;20477;-80
2022/01/24 12:50:55;;;;;;;58.27;29.97;;;;;;;;;;4985282;28;20457;-80
2022/01/24 12:53:22;;;;;;;59.73;32.73;;;;;;;;;;4985744;28;20475;-79
2022/01/24 12:55:58;;;;;;;55.20;32.40;;;;;;;;;;4985198;28;20463;-80
2022/01/24 12:58:29;;;;;;;54.40;31.23;;;;;;;;;;4983201;28;20486;-79
2022/01/24 13:00:57;;;;;;;52.57;31.90;;;;;;;;;;4985140;28;20457;-79
2022/01/24 13:03:23;;;;;;;52.23;29.63;;;;;;;;;;4983856;28;20874;-80
2022/01/24 13:05:49;;;;;;;55.37;31.97;;;;;;;;;;4986186;28;20467;-80
2022/01/24 13:08:17;;;;;;;52.03;29.87;;;;;;;;;;4985540;28;20490;-81
2022/01/24 13:10:44;;;;;;;57.43;32.00;;;;;;;;;;4985408;28;20534;-79
2022/01/24 13:13:14;;;;;;;50.77;29.37;;;;;;;;;;4985285;28;20557;-80
2022/01/24 13:21:16;;;;;;;50.00;30.07;;;;;;;;;;4984941;28;20979;-79
2022/01/24 13:23:45;;;;;;;51.67;29.87;;;;;;;;;;4983897;28;20454;-78
2022/01/24 13:26:12;;;;;;;55.30;32.40;;;;;;;;;;4985279;28;20530;-80
2022/01/24 13:28:40;;;;;;;54.70;34.80;;;;;;;;;;4985999;28;20522;-80
2022/01/24 13:31:07;;;;;;;50.20;30.17;;;;;;;;;;4983920;28;20516;-80
2022/01/24 13:33:34;;;;;;;57.43;29.80;;;;;;;;;;4984926;28;20455;-79
2022/01/24 13:36:04;;;;;;;54.33;31.67;;;;;;;;;;4985974;28;20447;-80
2022/01/24 13:38:31;;;;;;;48.60;28.97;;;;;;;;;;4985907;28;20490;-79
2022/01/24 13:40:59;;;;;;;52.97;29.50;;;;;;;;;;4982301;28;20466;-79
2022/01/24 13:43:30;;;;;;;50.33;29.30;;;;;;;;;;4985228;28;20545;-80
2022/01/24 13:45:58;;;;;;;49.03;29.40;;;;;;;;;;4985010;28;20523;-79
2022/01/24 13:48:25;;;;;;;53.00;31.70;;;;;;;;;;4984366;28;20502;-79
2022/01/24 13:50:52;;;;;;;52.60;30.40;;;;;;;;;;4981462;28;20891;-79
2022/01/24 13:53:32;;;;;;;52.30;30.83;;;;;;;;;;4985133;28;20490;-80
2022/01/24 13:55:58;;;;;;;57.87;33.27;;;;;;;;;;4983281;28;20932;-82
2022/01/24 13:58:24;;;;;;;56.83;32.63;;;;;;;;;;4985011;28;20521;-80
2022/01/24 14:00:56;;;;;;;55.57;31.60;;;;;;;;;;4987125;28;20972;-80
2022/01/24 14:03:23;;;;;;;50.23;30.63;;;;;;;;;;4989460;28;20463;-80
2022/01/24 14:05:50;;;;;;;51.17;30.40;;;;;;;;;;4987877;28;20485;-79
2022/01/24 14:08:17;;;;;;;48.00;29.90;;;;;;;;;;4986350;28;20587;-81
2022/01/24 14:10:43;;;;;;;50.70;29.50;;;;;;;;;;4989349;28;20474;-79
2022/01/24 14:13:11;;;;;;;48.23;29.87;;;;;;;;;;4988126;28;21007;-79
2022/01/24 14:15:48;;;;;;;51.53;29.50;;;;;;;;;;4989316;28;20454;-79
2022/01/24 14:18:26;;;;;;;49.20;29.20;;;;;;;;;;4988248;28;20537;-79
2022/01/24 14:20:54;;;;;;;55.30;31.70;;;;;;;;;;4987648;28;20558;-81
2022/01/24 14:23:22;;;;;;;50.43;30.77;;;;;;;;;;4986491;28;20592;-79
2022/01/24 14:25:48;;;;;;;51.00;29.93;;;;;;;;;;4988049;28;20483;-79
2022/01/24 14:28:15;;;;;;;58.67;33.27;;;;;;;;;;4987996;28;20534;-77
2022/01/24 14:30:43;;;;;;;56.30;32.50;;;;;;;;;;4987943;28;20451;-79
2022/01/24 14:33:12;;;;;;;50.00;31.50;;;;;;;;;;4988730;28;21017;-79
2022/01/24 14:35:43;;;;;;;51.07;32.50;;;;;;;;;;4987574;28;20470;-79
2022/01/24 14:38:11;;;;;;;52.20;32.17;;;;;;;;;;4987646;28;20541;-79
2022/01/24 14:40:45;;;;;;;55.27;31.60;;;;;;;;;;4988518;28;20458;-79
2022/01/24 14:45:56;;;;;;;51.50;30.30;;;;;;;;;;4986565;28;20486;-79
2022/01/24 14:48:22;;;;;;;50.00;28.87;;;;;;;;;;4985298;28;20494;-80
2022/01/24 14:50:48;;;;;;;46.73;27.70;;;;;;;;;;4983202;28;20462;-79
2022/01/24 14:53:16;;;;;;;49.00;29.37;;;;;;;;;;4985445;28;20487;-79
2022/01/24 14:55:43;;;;;;;50.43;28.60;;;;;;;;;;4984309;28;20478;-78
2022/01/24 14:58:09;;;;;;;51.83;31.33;;;;;;;;;;4984175;28;20543;-80
2022/01/24 15:00:35;;;;;;;53.97;31.63;;;;;;;;;;4984585;28;20545;-78
2022/01/24 15:03:02;;;;;;;58.20;32.47;;;;;;;;;;4984292;28;20486;-78
2022/01/24 15:05:28;;;;;;;56.27;31.43;;;;;;;;;;4985797;28;20485;-80
2022/01/24 15:07:54;;;;;;;55.43;33.13;;;;;;;;;;4986579;28;20526;-80
2022/01/24 15:10:22;;;;;;;63.30;33.37;;;;;;;;;;4984324;28;20452;-80
2022/01/24 15:12:52;;;;;;;52.97;31.80;;;;;;;;;;4984587;28;20479;-80
2022/01/24 15:15:21;;;;;;;45.50;28.90;;;;;;;;;;4988447;28;20458;-78
2022/01/24 15:23:57;;;;;;;52.97;30.10;;;;;;;;;;4986108;28;20503;-80
2022/01/24 15:26:10;;;;;;;48.67;30.30;;;;;;;;;;4970207;28;20537;-80
2022/01/24 15:28:36;;;;;;;50.20;30.27;;;;;;;;;;4986270;28;20478;-79
2022/01/24 15:31:02;;;;;;;50.47;32.43;;;;;;;;;;4985662;28;20461;-80
2022/01/24 15:33:29;;;;;;;55.57;31.63;;;;;;;;;;4979047;28;21516;-80
2022/01/24 15:35:55;;;;;;;54.00;31.20;;;;;;;;;;4985684;28;20451;-80
2022/01/24 15:38:22;;;;;;;53.37;32.10;;;;;;;;;;4986237;28;20479;-79
2022/01/24 15:40:48;;;;;;;59.57;32.77;;;;;;;;;;4990027;28;20471;-80
2022/01/24 15:43:38;;;;;;;55.30;31.00;;;;;;;;;;4989049;28;20526;-79
2022/01/24 15:46:43;;;;;;;54.53;31.80;;;;;;;;;;4988402;28;20581;-80
2022/01/24 15:48:53;;;;;;;56.83;34.20;;;;;;;;;;4990099;28;20541;-78